sensor_id;sensor_type;location;lat;lon;timestamp;pressure;altitude;pressure_sealevel;temperature;humidity
65784;BME280;52532;53.358;-1.488;2022-07-18T00:03:00;101133.89;;;26.45;28.45
65784;BME280;52532;53.358;-1.488;2022-07-18T00:06:03;101131.71;;;25.25;29.74
65784;BME280;52532;53.358;-1.488;2022-07-18T00:09:07;101130.95;;;25.42;29.75
65784;BME280;52532;53.358;-1.488;2022-07-18T00:12:11;101128.34;;;26.27;29.26
65784;BME280;52532;53.358;-1.488;2022-07-18T00:15:14;101122.89;;;25.79;29.87
65784;BME280;52532;53.358;-1.488;2022-07-18T00:18:20;101118.48;;;26.78;28.16
65784;BME280;52532;53.358;-1.488;2022-07-18T00:21:26;101112.59;;;25.80;29.74
65784;BME280;52532;53.358;-1.488;2022-07-18T00:24:30;101109.41;;;27.07;27.84
65784;BME280;52532;53.358;-1.488;2022-07-18T00:27:35;101110.55;;;26.84;29.02
65784;BME280;52532;53.358;-1.488;2022-07-18T00:30:38;101112.88;;;25.90;28.92
65784;BME280;52532;53.358;-1.488;2022-07-18T00:33:42;101112.34;;;24.83;30.11
65784;BME280;52532;53.358;-1.488;2022-07-18T00:36:46;101111.85;;;26.16;29.67
65784;BME280;52532;53.358;-1.488;2022-07-18T00:39:49;101117.21;;;26.51;28.51
65784;BME280;52532;53.358;-1.488;2022-07-18T00:42:55;101121.72;;;26.33;28.85
65784;BME280;52532;53.358;-1.488;2022-07-18T00:46:01;101115.20;;;25.02;30.32
65784;BME280;52532;53.358;-1.488;2022-07-18T00:49:06;101116.24;;;26.59;28.08
65784;BME280;52532;53.358;-1.488;2022-07-18T00:52:09;101114.84;;;27.41;27.72
65784;BME280;52532;53.358;-1.488;2022-07-18T00:55:12;101110.05;;;25.57;29.21
65784;BME280;52532;53.358;-1.488;2022-07-18T00:58:16;101109.74;;;26.36;28.67
65784;BME280;52532;53.358;-1.488;2022-07-18T01:01:20;101113.39;;;26.04;29.23
65784;BME280;52532;53.358;-1.488;2022-07-18T01:04:55;101111.11;;;24.36;30.96
65784;BME280;52532;53.358;-1.488;2022-07-18T01:07:58;101111.92;;;25.63;30.04
65784;BME280;52532;53.358;-1.488;2022-07-18T01:11:01;101110.95;;;26.14;29.89
65784;BME280;52532;53.358;-1.488;2022-07-18T01:14:06;101107.22;;;25.67;30.00
65784;BME280;52532;53.358;-1.488;2022-07-18T01:17:15;101104.62;;;26.95;28.40
65784;BME280;52532;53.358;-1.488;2022-07-18T01:20:19;101108.89;;;26.35;28.63
65784;BME280;52532;53.358;-1.488;2022-07-18T01:23:22;101104.91;;;23.64;31.89
65784;BME280;52532;53.358;-1.488;2022-07-18T01:26:26;101102.97;;;26.23;29.84
65784;BME280;52532;53.358;-1.488;2022-07-18T01:29:29;101101.09;;;25.81;29.57
65784;BME280;52532;53.358;-1.488;2022-07-18T01:32:37;101099.75;;;27.29;28.70
65784;BME280;52532;53.358;-1.488;2022-07-18T01:35:40;101099.03;;;26.77;28.89
65784;BME280;52532;53.358;-1.488;2022-07-18T01:38:43;101100.58;;;27.50;27.96
65784;BME280;52532;53.358;-1.488;2022-07-18T01:41:46;101098.23;;;27.16;28.64
65784;BME280;52532;53.358;-1.488;2022-07-18T01:44:56;101095.10;;;25.91;29.22
65784;BME280;52532;53.358;-1.488;2022-07-18T01:47:59;101088.50;;;25.77;30.00
65784;BME280;52532;53.358;-1.488;2022-07-18T01:51:03;101086.50;;;26.41;28.76
65784;BME280;52532;53.358;-1.488;2022-07-18T01:54:06;101081.83;;;26.54;28.77
65784;BME280;52532;53.358;-1.488;2022-07-18T01:57:09;101077.23;;;26.57;29.24
65784;BME280;52532;53.358;-1.488;2022-07-18T02:00:13;101075.96;;;27.47;27.95
65784;BME280;52532;53.358;-1.488;2022-07-18T02:03:16;101075.62;;;27.67;27.75
65784;BME280;52532;53.358;-1.488;2022-07-18T02:06:19;101074.01;;;26.54;28.47
65784;BME280;52532;53.358;-1.488;2022-07-18T02:09:22;101070.29;;;27.67;27.68
65784;BME280;52532;53.358;-1.488;2022-07-18T02:12:25;101071.73;;;26.67;28.26
65784;BME280;52532;53.358;-1.488;2022-07-18T02:15:28;101071.81;;;26.54;27.90
65784;BME280;52532;53.358;-1.488;2022-07-18T02:18:31;101070.98;;;27.46;27.16
65784;BME280;52532;53.358;-1.488;2022-07-18T02:21:35;101069.78;;;27.32;26.71
65784;BME280;52532;53.358;-1.488;2022-07-18T02:24:38;101061.81;;;27.39;27.16
65784;BME280;52532;53.358;-1.488;2022-07-18T02:27:41;101057.09;;;25.24;28.70
65784;BME280;52532;53.358;-1.488;2022-07-18T02:30:44;101058.01;;;26.20;27.88
65784;BME280;52532;53.358;-1.488;2022-07-18T02:33:47;101055.14;;;26.86;27.10
65784;BME280;52532;53.358;-1.488;2022-07-18T02:36:50;101053.82;;;26.32;27.33
65784;BME280;52532;53.358;-1.488;2022-07-18T02:39:53;101047.95;;;25.40;27.93
65784;BME280;52532;53.358;-1.488;2022-07-18T02:42:56;101047.07;;;26.43;27.00
65784;BME280;52532;53.358;-1.488;2022-07-18T02:45:59;101044.38;;;26.14;27.28
65784;BME280;52532;53.358;-1.488;2022-07-18T02:49:03;101038.86;;;24.66;28.02
65784;BME280;52532;53.358;-1.488;2022-07-18T02:52:08;101040.08;;;25.73;26.80
65784;BME280;52532;53.358;-1.488;2022-07-18T02:55:12;101035.06;;;25.06;26.29
65784;BME280;52532;53.358;-1.488;2022-07-18T02:58:16;101026.55;;;25.29;26.14
65784;BME280;52532;53.358;-1.488;2022-07-18T03:01:18;101027.09;;;25.40;26.00
65784;BME280;52532;53.358;-1.488;2022-07-18T03:04:22;101028.07;;;24.23;27.02
65784;BME280;52532;53.358;-1.488;2022-07-18T03:07:25;101026.01;;;24.57;26.19
65784;BME280;52532;53.358;-1.488;2022-07-18T03:10:28;101030.05;;;25.05;25.84
65784;BME280;52532;53.358;-1.488;2022-07-18T03:13:31;101031.15;;;25.81;24.90
65784;BME280;52532;53.358;-1.488;2022-07-18T03:16:35;101030.14;;;25.56;24.61
65784;BME280;52532;53.358;-1.488;2022-07-18T03:19:38;101030.27;;;26.03;24.02
65784;BME280;52532;53.358;-1.488;2022-07-18T03:22:41;101025.57;;;27.17;22.76
65784;BME280;52532;53.358;-1.488;2022-07-18T03:25:44;101023.91;;;24.75;25.33
65784;BME280;52532;53.358;-1.488;2022-07-18T03:28:47;101020.38;;;24.83;25.35
65784;BME280;52532;53.358;-1.488;2022-07-18T03:31:50;101014.89;;;24.82;24.75
65784;BME280;52532;53.358;-1.488;2022-07-18T03:34:53;101007.73;;;23.72;25.56
65784;BME280;52532;53.358;-1.488;2022-07-18T03:37:56;101007.80;;;23.78;25.03
65784;BME280;52532;53.358;-1.488;2022-07-18T03:40:59;101005.25;;;24.65;24.71
65784;BME280;52532;53.358;-1.488;2022-07-18T03:44:02;101008.01;;;26.18;24.10
65784;BME280;52532;53.358;-1.488;2022-07-18T03:47:05;101006.45;;;25.15;24.22
65784;BME280;52532;53.358;-1.488;2022-07-18T03:50:09;101004.14;;;24.86;24.87
65784;BME280;52532;53.358;-1.488;2022-07-18T03:53:12;101005.57;;;25.28;23.86
65784;BME280;52532;53.358;-1.488;2022-07-18T03:56:15;101008.09;;;23.90;24.60
65784;BME280;52532;53.358;-1.488;2022-07-18T03:59:18;101013.53;;;25.50;23.41
65784;BME280;52532;53.358;-1.488;2022-07-18T04:02:21;101014.07;;;24.69;23.51
65784;BME280;52532;53.358;-1.488;2022-07-18T04:05:24;101013.61;;;24.47;23.77
65784;BME280;52532;53.358;-1.488;2022-07-18T04:08:27;101013.17;;;25.33;23.15
65784;BME280;52532;53.358;-1.488;2022-07-18T04:11:30;101013.79;;;25.91;22.71
65784;BME280;52532;53.358;-1.488;2022-07-18T04:14:32;101008.47;;;25.66;22.72
65784;BME280;52532;53.358;-1.488;2022-07-18T04:17:35;101008.67;;;25.26;22.89
65784;BME280;52532;53.358;-1.488;2022-07-18T04:20:38;101009.48;;;24.92;22.92
65784;BME280;52532;53.358;-1.488;2022-07-18T04:23:42;101006.86;;;24.35;23.09
65784;BME280;52532;53.358;-1.488;2022-07-18T04:26:45;101005.29;;;26.23;21.96
65784;BME280;52532;53.358;-1.488;2022-07-18T04:29:48;101003.33;;;26.67;21.39
65784;BME280;52532;53.358;-1.488;2022-07-18T04:32:51;100998.18;;;25.03;22.10
65784;BME280;52532;53.358;-1.488;2022-07-18T04:35:55;100997.29;;;22.72;23.87
65784;BME280;52532;53.358;-1.488;2022-07-18T04:38:58;100989.43;;;25.16;22.17
65784;BME280;52532;53.358;-1.488;2022-07-18T04:42:00;100985.14;;;24.76;22.40
65784;BME280;52532;53.358;-1.488;2022-07-18T04:45:05;100983.50;;;26.10;21.33
65784;BME280;52532;53.358;-1.488;2022-07-18T04:48:08;100978.59;;;25.18;21.47
65784;BME280;52532;53.358;-1.488;2022-07-18T04:51:11;100974.11;;;25.25;21.73
65784;BME280;52532;53.358;-1.488;2022-07-18T04:54:14;100971.80;;;25.13;21.75
65784;BME280;52532;53.358;-1.488;2022-07-18T04:57:17;100968.18;;;25.73;21.58
65784;BME280;52532;53.358;-1.488;2022-07-18T05:00:22;100969.80;;;26.89;20.85
65784;BME280;52532;53.358;-1.488;2022-07-18T05:03:25;100968.85;;;26.54;20.66
65784;BME280;52532;53.358;-1.488;2022-07-18T05:06:28;100969.20;;;25.37;22.01
65784;BME280;52532;53.358;-1.488;2022-07-18T05:09:31;100968.74;;;25.76;21.01
65784;BME280;52532;53.358;-1.488;2022-07-18T05:12:34;100967.85;;;26.97;20.58
65784;BME280;52532;53.358;-1.488;2022-07-18T05:15:38;100964.13;;;24.93;21.92
65784;BME280;52532;53.358;-1.488;2022-07-18T05:18:41;100964.27;;;25.44;21.67
65784;BME280;52532;53.358;-1.488;2022-07-18T05:21:44;100960.01;;;25.05;21.46
65784;BME280;52532;53.358;-1.488;2022-07-18T05:24:47;100959.92;;;25.40;20.63
65784;BME280;52532;53.358;-1.488;2022-07-18T05:27:51;100956.50;;;26.04;20.99
65784;BME280;52532;53.358;-1.488;2022-07-18T05:30:54;100959.18;;;26.36;20.98
65784;BME280;52532;53.358;-1.488;2022-07-18T05:33:58;100959.52;;;26.14;20.25
65784;BME280;52532;53.358;-1.488;2022-07-18T05:37:01;100960.06;;;25.49;20.23
65784;BME280;52532;53.358;-1.488;2022-07-18T05:40:05;100957.37;;;25.36;21.99
65784;BME280;52532;53.358;-1.488;2022-07-18T05:43:08;100957.73;;;26.99;20.82
65784;BME280;52532;53.358;-1.488;2022-07-18T05:46:12;100956.70;;;26.34;22.21
65784;BME280;52532;53.358;-1.488;2022-07-18T05:49:15;100959.80;;;26.76;21.10
65784;BME280;52532;53.358;-1.488;2022-07-18T05:52:18;100961.65;;;26.46;21.82
65784;BME280;52532;53.358;-1.488;2022-07-18T05:55:23;100957.53;;;26.81;21.64
65784;BME280;52532;53.358;-1.488;2022-07-18T05:58:27;100962.79;;;27.61;20.81
65784;BME280;52532;53.358;-1.488;2022-07-18T06:01:31;100957.08;;;26.11;22.09
65784;BME280;52532;53.358;-1.488;2022-07-18T06:04:34;100962.42;;;26.94;22.95
65784;BME280;52532;53.358;-1.488;2022-07-18T06:07:37;100964.48;;;25.82;23.16
65784;BME280;52532;53.358;-1.488;2022-07-18T06:10:40;100964.90;;;24.77;23.74
65784;BME280;52532;53.358;-1.488;2022-07-18T06:13:44;100962.56;;;26.56;23.13
65784;BME280;52532;53.358;-1.488;2022-07-18T06:16:47;100964.69;;;24.95;23.86
65784;BME280;52532;53.358;-1.488;2022-07-18T06:19:50;100968.35;;;26.49;22.66
65784;BME280;52532;53.358;-1.488;2022-07-18T06:22:53;100970.44;;;25.55;24.04
65784;BME280;52532;53.358;-1.488;2022-07-18T06:25:56;100967.79;;;26.76;22.37
65784;BME280;52532;53.358;-1.488;2022-07-18T06:28:59;100968.02;;;26.33;22.07
65784;BME280;52532;53.358;-1.488;2022-07-18T06:32:02;100968.51;;;26.15;22.56
65784;BME280;52532;53.358;-1.488;2022-07-18T06:35:06;100966.96;;;25.90;22.38
65784;BME280;52532;53.358;-1.488;2022-07-18T06:38:09;100968.46;;;27.50;21.03
65784;BME280;52532;53.358;-1.488;2022-07-18T06:41:12;100968.87;;;28.02;21.43
65784;BME280;52532;53.358;-1.488;2022-07-18T06:44:18;100966.68;;;26.56;22.44
65784;BME280;52532;53.358;-1.488;2022-07-18T06:47:22;100965.14;;;25.56;23.54
65784;BME280;52532;53.358;-1.488;2022-07-18T06:50:27;100966.12;;;27.85;21.21
65784;BME280;52532;53.358;-1.488;2022-07-18T06:53:30;100969.55;;;28.52;21.64
65784;BME280;52532;53.358;-1.488;2022-07-18T06:56:33;100967.64;;;27.77;21.36
65784;BME280;52532;53.358;-1.488;2022-07-18T06:59:36;100968.46;;;28.15;20.87
65784;BME280;52532;53.358;-1.488;2022-07-18T07:02:41;100970.05;;;29.43;19.90
65784;BME280;52532;53.358;-1.488;2022-07-18T07:05:45;100969.09;;;28.54;21.68
65784;BME280;52532;53.358;-1.488;2022-07-18T07:08:48;100967.16;;;28.30;21.56
65784;BME280;52532;53.358;-1.488;2022-07-18T07:11:51;100963.70;;;27.01;22.52
65784;BME280;52532;53.358;-1.488;2022-07-18T07:14:53;100962.34;;;26.59;23.88
65784;BME280;52532;53.358;-1.488;2022-07-18T07:17:56;100960.72;;;27.19;23.89
65784;BME280;52532;53.358;-1.488;2022-07-18T07:20:59;100960.72;;;27.96;22.60
65784;BME280;52532;53.358;-1.488;2022-07-18T07:24:03;100961.64;;;29.35;21.69
65784;BME280;52532;53.358;-1.488;2022-07-18T07:27:06;100961.38;;;29.16;22.09
65784;BME280;52532;53.358;-1.488;2022-07-18T07:30:15;100962.13;;;25.35;25.52
65784;BME280;52532;53.358;-1.488;2022-07-18T07:33:18;100967.94;;;27.42;23.69
65784;BME280;52532;53.358;-1.488;2022-07-18T07:36:21;100963.79;;;25.92;24.92
65784;BME280;52532;53.358;-1.488;2022-07-18T07:39:24;100959.99;;;26.95;23.63
65784;BME280;52532;53.358;-1.488;2022-07-18T07:42:27;100961.10;;;27.88;21.82
65784;BME280;52532;53.358;-1.488;2022-07-18T07:45:35;100961.48;;;28.95;20.18
65784;BME280;52532;53.358;-1.488;2022-07-18T07:48:39;100958.61;;;27.83;20.80
65784;BME280;52532;53.358;-1.488;2022-07-18T07:51:41;100963.17;;;26.49;22.34
65784;BME280;52532;53.358;-1.488;2022-07-18T07:54:45;100961.72;;;27.24;22.04
65784;BME280;52532;53.358;-1.488;2022-07-18T07:57:48;100963.95;;;28.59;20.74
65784;BME280;52532;53.358;-1.488;2022-07-18T08:00:51;100961.38;;;25.03;22.61
65784;BME280;52532;53.358;-1.488;2022-07-18T08:03:54;100963.34;;;27.20;22.06
65784;BME280;52532;53.358;-1.488;2022-07-18T08:06:57;100961.35;;;28.65;21.49
65784;BME280;52532;53.358;-1.488;2022-07-18T08:10:00;100963.43;;;29.59;20.05
65784;BME280;52532;53.358;-1.488;2022-07-18T08:13:03;100965.00;;;28.75;20.09
65784;BME280;52532;53.358;-1.488;2022-07-18T08:16:07;100956.76;;;27.97;20.89
65784;BME280;52532;53.358;-1.488;2022-07-18T08:19:11;100955.41;;;28.37;20.68
65784;BME280;52532;53.358;-1.488;2022-07-18T08:22:13;100959.66;;;28.88;20.47
65784;BME280;52532;53.358;-1.488;2022-07-18T08:25:18;100954.92;;;28.34;20.74
65784;BME280;52532;53.358;-1.488;2022-07-18T08:28:21;100955.06;;;29.00;20.03
65784;BME280;52532;53.358;-1.488;2022-07-18T08:31:26;100950.69;;;27.71;20.75
65784;BME280;52532;53.358;-1.488;2022-07-18T08:34:29;100950.29;;;30.02;19.65
65784;BME280;52532;53.358;-1.488;2022-07-18T08:37:32;100947.49;;;28.37;20.71
65784;BME280;52532;53.358;-1.488;2022-07-18T08:40:37;100949.61;;;29.91;19.88
65784;BME280;52532;53.358;-1.488;2022-07-18T08:43:40;100948.53;;;29.10;19.77
65784;BME280;52532;53.358;-1.488;2022-07-18T08:46:49;100947.76;;;29.34;19.82
65784;BME280;52532;53.358;-1.488;2022-07-18T08:49:53;100943.21;;;28.33;20.42
65784;BME280;52532;53.358;-1.488;2022-07-18T08:52:57;100943.87;;;28.85;20.03
65784;BME280;52532;53.358;-1.488;2022-07-18T08:56:00;100943.65;;;27.25;21.00
65784;BME280;52532;53.358;-1.488;2022-07-18T08:59:13;100940.73;;;27.83;20.18
65784;BME280;52532;53.358;-1.488;2022-07-18T09:02:17;100945.93;;;28.44;19.85
65784;BME280;52532;53.358;-1.488;2022-07-18T09:05:21;100944.59;;;27.75;20.40
65784;BME280;52532;53.358;-1.488;2022-07-18T09:08:23;100943.82;;;30.44;17.93
65784;BME280;52532;53.358;-1.488;2022-07-18T09:11:27;100939.97;;;30.53;18.47
65784;BME280;52532;53.358;-1.488;2022-07-18T09:14:33;100939.26;;;29.36;18.82
65784;BME280;52532;53.358;-1.488;2022-07-18T09:17:37;100938.90;;;29.93;18.38
65784;BME280;52532;53.358;-1.488;2022-07-18T09:20:58;100939.83;;;29.43;18.64
65784;BME280;52532;53.358;-1.488;2022-07-18T09:24:02;100933.09;;;28.33;19.47
65784;BME280;52532;53.358;-1.488;2022-07-18T09:27:23;100933.52;;;29.93;18.53
65784;BME280;52532;53.358;-1.488;2022-07-18T09:30:27;100929.98;;;30.40;17.15
65784;BME280;52532;53.358;-1.488;2022-07-18T09:33:30;100925.98;;;30.02;18.36
65784;BME280;52532;53.358;-1.488;2022-07-18T09:36:34;100924.58;;;29.75;17.08
65784;BME280;52532;53.358;-1.488;2022-07-18T09:39:38;100925.54;;;31.16;15.94
65784;BME280;52532;53.358;-1.488;2022-07-18T09:42:41;100920.19;;;30.06;16.41
65784;BME280;52532;53.358;-1.488;2022-07-18T09:45:45;100917.19;;;29.37;16.11
65784;BME280;52532;53.358;-1.488;2022-07-18T09:49:07;100917.08;;;29.49;14.30
65784;BME280;52532;53.358;-1.488;2022-07-18T09:52:11;100922.86;;;29.61;15.05
65784;BME280;52532;53.358;-1.488;2022-07-18T09:55:14;100913.37;;;29.79;14.72
65784;BME280;52532;53.358;-1.488;2022-07-18T09:58:23;100911.39;;;30.41;16.23
65784;BME280;52532;53.358;-1.488;2022-07-18T10:01:28;100917.40;;;29.88;14.58
65784;BME280;52532;53.358;-1.488;2022-07-18T10:04:35;100915.53;;;29.49;14.70
65784;BME280;52532;53.358;-1.488;2022-07-18T10:07:39;100914.52;;;30.46;14.73
65784;BME280;52532;53.358;-1.488;2022-07-18T10:10:46;100916.34;;;30.78;14.64
65784;BME280;52532;53.358;-1.488;2022-07-18T10:13:50;100918.22;;;29.26;15.13
65784;BME280;52532;53.358;-1.488;2022-07-18T10:16:55;100913.35;;;27.47;16.50
65784;BME280;52532;53.358;-1.488;2022-07-18T10:20:03;100912.45;;;29.90;15.42
65784;BME280;52532;53.358;-1.488;2022-07-18T10:23:13;100914.01;;;31.68;14.73
65784;BME280;52532;53.358;-1.488;2022-07-18T10:26:22;100913.87;;;32.16;14.46
65784;BME280;52532;53.358;-1.488;2022-07-18T10:29:26;100911.97;;;31.72;13.74
65784;BME280;52532;53.358;-1.488;2022-07-18T10:32:33;100911.23;;;30.40;14.66
65784;BME280;52532;53.358;-1.488;2022-07-18T10:36:11;100912.05;;;31.27;13.67
65784;BME280;52532;53.358;-1.488;2022-07-18T10:39:16;100907.76;;;32.09;13.90
65784;BME280;52532;53.358;-1.488;2022-07-18T10:42:23;100909.32;;;32.44;12.87
65784;BME280;52532;53.358;-1.488;2022-07-18T10:45:43;100901.58;;;31.91;13.09
65784;BME280;52532;53.358;-1.488;2022-07-18T10:48:50;100901.55;;;30.06;14.15
65784;BME280;52532;53.358;-1.488;2022-07-18T10:51:56;100904.27;;;31.36;13.26
65784;BME280;52532;53.358;-1.488;2022-07-18T10:55:28;100899.63;;;32.18;12.40
65784;BME280;52532;53.358;-1.488;2022-07-18T10:58:38;100906.87;;;31.43;13.43
65784;BME280;52532;53.358;-1.488;2022-07-18T11:01:54;100899.42;;;32.60;12.32
65784;BME280;52532;53.358;-1.488;2022-07-18T11:04:59;100897.04;;;32.78;11.96
65784;BME280;52532;53.358;-1.488;2022-07-18T11:08:20;100891.12;;;33.61;11.17
65784;BME280;52532;53.358;-1.488;2022-07-18T11:11:27;100885.85;;;32.52;11.84
65784;BME280;52532;53.358;-1.488;2022-07-18T11:15:25;100885.16;;;30.94;13.39
65784;BME280;52532;53.358;-1.488;2022-07-18T11:18:29;100892.01;;;32.37;12.12
65784;BME280;52532;53.358;-1.488;2022-07-18T11:21:34;100886.48;;;31.19;12.66
65784;BME280;52532;53.358;-1.488;2022-07-18T11:24:37;100883.64;;;32.45;13.01
65784;BME280;52532;53.358;-1.488;2022-07-18T11:27:41;100885.89;;;33.33;12.30
65784;BME280;52532;53.358;-1.488;2022-07-18T11:30:46;100886.82;;;33.35;12.30
65784;BME280;52532;53.358;-1.488;2022-07-18T11:34:02;100877.74;;;31.62;13.18
65784;BME280;52532;53.358;-1.488;2022-07-18T11:37:05;100877.16;;;33.06;11.40
65784;BME280;52532;53.358;-1.488;2022-07-18T11:40:09;100876.70;;;31.10;12.94
65784;BME280;52532;53.358;-1.488;2022-07-18T11:43:20;100877.81;;;33.63;11.66
65784;BME280;52532;53.358;-1.488;2022-07-18T11:46:26;100874.18;;;34.21;11.24
65784;BME280;52532;53.358;-1.488;2022-07-18T11:49:29;100872.90;;;33.96;12.23
65784;BME280;52532;53.358;-1.488;2022-07-18T11:52:33;100873.65;;;32.60;12.70
65784;BME280;52532;53.358;-1.488;2022-07-18T11:55:37;100868.39;;;33.51;12.21
65784;BME280;52532;53.358;-1.488;2022-07-18T11:58:42;100858.44;;;33.31;12.85
65784;BME280;52532;53.358;-1.488;2022-07-18T12:01:45;100861.60;;;34.28;12.20
65784;BME280;52532;53.358;-1.488;2022-07-18T12:04:49;100861.84;;;32.71;12.59
65784;BME280;52532;53.358;-1.488;2022-07-18T12:07:53;100855.37;;;31.84;12.79
65784;BME280;52532;53.358;-1.488;2022-07-18T12:11:07;100855.13;;;33.34;12.09
65784;BME280;52532;53.358;-1.488;2022-07-18T12:14:14;100852.02;;;32.46;12.86
65784;BME280;52532;53.358;-1.488;2022-07-18T12:17:17;100850.20;;;34.20;12.32
65784;BME280;52532;53.358;-1.488;2022-07-18T12:20:21;100846.66;;;32.89;12.62
65784;BME280;52532;53.358;-1.488;2022-07-18T12:23:28;100839.18;;;34.01;12.11
65784;BME280;52532;53.358;-1.488;2022-07-18T12:26:31;100840.45;;;32.32;12.66
65784;BME280;52532;53.358;-1.488;2022-07-18T12:29:54;100838.25;;;33.92;11.65
65784;BME280;52532;53.358;-1.488;2022-07-18T12:33:07;100844.63;;;34.23;12.02
65784;BME280;52532;53.358;-1.488;2022-07-18T12:36:11;100845.64;;;35.06;11.20
65784;BME280;52532;53.358;-1.488;2022-07-18T12:39:25;100840.97;;;35.89;11.01
65784;BME280;52532;53.358;-1.488;2022-07-18T12:42:32;100837.19;;;34.30;12.41
65784;BME280;52532;53.358;-1.488;2022-07-18T12:45:36;100827.62;;;33.94;12.15
65784;BME280;52532;53.358;-1.488;2022-07-18T12:48:40;100829.58;;;32.92;12.85
65784;BME280;52532;53.358;-1.488;2022-07-18T12:51:44;100826.91;;;34.13;12.68
65784;BME280;52532;53.358;-1.488;2022-07-18T12:54:48;100826.67;;;34.24;12.21
65784;BME280;52532;53.358;-1.488;2022-07-18T12:57:51;100821.88;;;33.84;12.01
65784;BME280;52532;53.358;-1.488;2022-07-18T13:00:57;100823.48;;;34.07;12.95
65784;BME280;52532;53.358;-1.488;2022-07-18T13:04:05;100813.66;;;32.98;12.48
65784;BME280;52532;53.358;-1.488;2022-07-18T13:07:09;100813.46;;;35.47;12.67
65784;BME280;52532;53.358;-1.488;2022-07-18T13:10:12;100812.10;;;33.66;12.80
65784;BME280;52532;53.358;-1.488;2022-07-18T13:13:17;100804.83;;;33.98;13.75
65784;BME280;52532;53.358;-1.488;2022-07-18T13:16:20;100809.14;;;34.20;13.41
65784;BME280;52532;53.358;-1.488;2022-07-18T13:19:24;100802.21;;;33.63;14.12
65784;BME280;52532;53.358;-1.488;2022-07-18T13:22:28;100793.39;;;35.00;13.85
65784;BME280;52532;53.358;-1.488;2022-07-18T13:25:34;100794.11;;;35.12;13.15
65784;BME280;52532;53.358;-1.488;2022-07-18T13:28:37;100788.86;;;33.37;14.94
65784;BME280;52532;53.358;-1.488;2022-07-18T13:31:40;100790.03;;;34.50;14.70
65784;BME280;52532;53.358;-1.488;2022-07-18T13:34:44;100791.56;;;35.36;14.15
65784;BME280;52532;53.358;-1.488;2022-07-18T13:37:47;100792.86;;;34.06;14.29
65784;BME280;52532;53.358;-1.488;2022-07-18T13:40:50;100783.65;;;35.15;13.66
65784;BME280;52532;53.358;-1.488;2022-07-18T13:43:55;100786.96;;;37.90;12.41
65784;BME280;52532;53.358;-1.488;2022-07-18T13:46:59;100782.35;;;36.78;14.30
65784;BME280;52532;53.358;-1.488;2022-07-18T13:50:02;100778.40;;;34.61;12.66
65784;BME280;52532;53.358;-1.488;2022-07-18T13:53:06;100773.13;;;36.70;12.29
65784;BME280;52532;53.358;-1.488;2022-07-18T13:56:10;100770.07;;;38.12;10.86
65784;BME280;52532;53.358;-1.488;2022-07-18T13:59:13;100772.51;;;37.72;11.64
65784;BME280;52532;53.358;-1.488;2022-07-18T14:02:20;100773.96;;;36.35;12.32
65784;BME280;52532;53.358;-1.488;2022-07-18T14:05:24;100765.55;;;37.73;10.98
65784;BME280;52532;53.358;-1.488;2022-07-18T14:08:27;100774.06;;;36.60;12.15
65784;BME280;52532;53.358;-1.488;2022-07-18T14:11:32;100773.11;;;37.76;10.94
65784;BME280;52532;53.358;-1.488;2022-07-18T14:14:35;100778.57;;;36.21;11.42
65784;BME280;52532;53.358;-1.488;2022-07-18T14:17:39;100773.87;;;37.99;11.20
65784;BME280;52532;53.358;-1.488;2022-07-18T14:20:42;100775.31;;;37.56;11.28
65784;BME280;52532;53.358;-1.488;2022-07-18T14:23:45;100778.43;;;36.22;10.88
65784;BME280;52532;53.358;-1.488;2022-07-18T14:26:48;100775.69;;;38.09;11.10
65784;BME280;52532;53.358;-1.488;2022-07-18T14:29:51;100771.05;;;38.24;10.40
65784;BME280;52532;53.358;-1.488;2022-07-18T14:32:54;100765.27;;;36.38;12.44
65784;BME280;52532;53.358;-1.488;2022-07-18T14:35:57;100767.16;;;37.95;11.37
65784;BME280;52532;53.358;-1.488;2022-07-18T14:39:00;100769.00;;;37.97;11.60
65784;BME280;52532;53.358;-1.488;2022-07-18T14:42:03;100763.50;;;38.70;11.95
65784;BME280;52532;53.358;-1.488;2022-07-18T14:45:07;100765.47;;;36.46;13.18
65784;BME280;52532;53.358;-1.488;2022-07-18T14:48:10;100758.14;;;37.83;11.74
65784;BME280;52532;53.358;-1.488;2022-07-18T14:51:16;100758.03;;;35.94;12.50
65784;BME280;52532;53.358;-1.488;2022-07-18T14:54:24;100754.01;;;37.24;12.00
65784;BME280;52532;53.358;-1.488;2022-07-18T14:57:27;100761.28;;;39.02;12.66
65784;BME280;52532;53.358;-1.488;2022-07-18T15:00:30;100747.96;;;37.23;12.55
65784;BME280;52532;53.358;-1.488;2022-07-18T15:03:38;100742.00;;;39.63;11.55
65784;BME280;52532;53.358;-1.488;2022-07-18T15:06:41;100740.59;;;39.29;12.02
65784;BME280;52532;53.358;-1.488;2022-07-18T15:09:44;100739.89;;;36.91;11.62
65784;BME280;52532;53.358;-1.488;2022-07-18T15:12:48;100736.17;;;39.63;10.74
65784;BME280;52532;53.358;-1.488;2022-07-18T15:15:52;100729.34;;;39.33;10.35
65784;BME280;52532;53.358;-1.488;2022-07-18T15:18:59;100723.38;;;37.58;12.24
65784;BME280;52532;53.358;-1.488;2022-07-18T15:22:03;100720.09;;;37.40;11.75
65784;BME280;52532;53.358;-1.488;2022-07-18T15:25:08;100714.05;;;39.52;10.72
65784;BME280;52532;53.358;-1.488;2022-07-18T15:28:11;100714.32;;;39.71;12.37
65784;BME280;52532;53.358;-1.488;2022-07-18T15:31:14;100713.06;;;38.18;11.73
65784;BME280;52532;53.358;-1.488;2022-07-18T15:34:17;100708.17;;;37.01;12.59
65784;BME280;52532;53.358;-1.488;2022-07-18T15:37:20;100708.83;;;39.19;11.71
65784;BME280;52532;53.358;-1.488;2022-07-18T15:40:23;100701.92;;;38.44;13.29
65784;BME280;52532;53.358;-1.488;2022-07-18T15:43:26;100694.53;;;38.62;12.58
65784;BME280;52532;53.358;-1.488;2022-07-18T15:46:29;100698.33;;;40.48;12.60
65784;BME280;52532;53.358;-1.488;2022-07-18T15:49:32;100694.66;;;37.90;11.39
65784;BME280;52532;53.358;-1.488;2022-07-18T15:52:35;100686.87;;;39.59;11.28
65784;BME280;52532;53.358;-1.488;2022-07-18T15:55:39;100689.19;;;38.30;12.12